Time;durP1;ratioP1;P1;durP2;ratioP2;P2;SDS_P1;SDS_P2;PMS_P1;PMS_P2;Temp;Humidity;BMP_temperature;BMP_pressure;BME280_temperature;BME280_humidity;BME280_pressure;Samples;Min_cycle;Max_cycle;Signal;HPM_P1;HPM_P2
2024/01/24 00:01:49;;;;;;;10.85;3.30;;;;;;;17.38;100.00;101037.19;5017198;28;20141;-45
2024/01/24 00:04:15;;;;;;;12.35;3.72;;;;;;;17.37;100.00;101046.06;5013000;28;20045;-43
2024/01/24 00:06:42;;;;;;;12.35;3.78;;;;;;;17.39;100.00;101026.72;5018096;28;20049;-44
2024/01/24 00:09:08;;;;;;;11.07;3.88;;;;;;;17.37;100.00;101023.59;5021148;28;20053;-49
2024/01/24 00:11:35;;;;;;;12.27;3.00;;;;;;;17.39;100.00;101021.88;5010101;28;20045;-46
2024/01/24 00:14:03;;;;;;;10.60;3.65;;;;;;;17.39;100.00;101009.88;5001856;28;20492;-46
2024/01/24 00:16:29;;;;;;;12.93;3.78;;;;;;;17.37;100.00;100995.47;5005574;28;20095;-46
2024/01/24 00:18:59;;;;;;;11.25;3.72;;;;;;;17.36;100.00;100980.63;5014738;28;20073;-47
2024/01/24 00:21:25;;;;;;;10.63;3.40;;;;;;;17.36;100.00;100977.81;5016460;28;20045;-47
2024/01/24 00:23:52;;;;;;;11.90;3.42;;;;;;;17.34;100.00;100977.50;5016800;28;20060;-45
2024/01/24 00:26:18;;;;;;;13.02;4.35;;;;;;;17.36;100.00;100983.44;5019638;28;20054;-45
2024/01/24 00:28:45;;;;;;;10.88;3.75;;;;;;;17.41;100.00;100962.41;5012643;28;20130;-46
2024/01/24 00:31:11;;;;;;;10.85;3.30;;;;;;;17.43;100.00;100966.31;5006440;28;20054;-46
2024/01/24 00:33:38;;;;;;;13.20;4.03;;;;;;;17.42;100.00;100959.13;5007163;28;20064;-46
2024/01/24 00:36:05;;;;;;;9.57;3.28;;;;;;;17.42;100.00;100964.00;5020450;28;20045;-43
2024/01/24 00:38:32;;;;;;;7.22;3.00;;;;;;;17.43;100.00;100955.06;5008786;28;20108;-46
2024/01/24 00:40:58;;;;;;;11.65;3.80;;;;;;;17.36;100.00;100960.97;5018196;28;20081;-43
2024/01/24 00:43:25;;;;;;;12.73;4.00;;;;;;;17.38;100.00;100957.69;5001489;28;20093;-44
2024/01/24 00:45:52;;;;;;;17.17;3.65;;;;;;;17.36;100.00;100960.19;5002837;28;20091;-45
2024/01/24 00:48:18;;;;;;;11.18;3.25;;;;;;;17.34;100.00;100965.47;5017393;28;20056;-47
2024/01/24 00:50:45;;;;;;;10.68;3.05;;;;;;;17.35;100.00;100979.06;5008618;28;20500;-43
2024/01/24 00:53:19;;;;;;;9.25;2.95;;;;;;;17.35;100.00;100965.03;5003375;28;20121;-46
2024/01/24 00:55:46;;;;;;;13.52;4.13;;;;;;;17.32;100.00;100951.88;5017099;28;20053;-43
2024/01/24 00:58:13;;;;;;;11.30;3.20;;;;;;;17.34;100.00;100940.97;5011493;28;20100;-46
2024/01/24 01:00:40;;;;;;;8.23;3.22;;;;;;;17.34;100.00;100924.13;5016943;28;20577;-49
2024/01/24 01:03:08;;;;;;;10.00;3.47;;;;;;;17.34;100.00;100931.75;5007028;28;20046;-45
2024/01/24 01:05:36;;;;;;;9.63;3.22;;;;;;;17.35;100.00;100942.53;5001472;28;20050;-42
2024/01/24 01:08:05;;;;;;;10.70;3.50;;;;;;;17.35;100.00;100934.09;5009037;28;20483;-44
2024/01/24 01:10:31;;;;;;;9.02;3.15;;;;;;;17.41;100.00;100933.53;4999422;28;20054;-44
2024/01/24 01:12:58;;;;;;;10.90;3.28;;;;;;;17.40;100.00;100924.31;5010450;28;20067;-45
2024/01/24 01:15:24;;;;;;;12.30;3.22;;;;;;;17.41;100.00;100930.72;5013654;28;20042;-43
2024/01/24 01:17:51;;;;;;;11.30;3.80;;;;;;;17.41;100.00;100939.16;5015087;28;20046;-45
2024/01/24 01:20:20;;;;;;;9.13;2.97;;;;;;;17.38;100.00;100920.41;5010699;28;20045;-44
2024/01/24 01:22:47;;;;;;;11.15;2.80;;;;;;;17.36;100.00;100921.63;5013554;28;20049;-46
2024/01/24 01:25:14;;;;;;;9.90;3.22;;;;;;;17.42;100.00;100919.78;5016785;28;20073;-45
2024/01/24 01:27:40;;;;;;;10.80;3.35;;;;;;;17.45;100.00;100934.19;5006922;28;20054;-47
2024/01/24 01:30:07;;;;;;;8.65;2.92;;;;;;;17.47;100.00;100928.84;5009406;28;20050;-45
2024/01/24 01:32:34;;;;;;;9.93;3.28;;;;;;;17.47;100.00;100928.84;5011930;28;20065;-46
2024/01/24 01:35:00;;;;;;;12.77;2.90;;;;;;;17.47;100.00;100921.22;5022203;28;20037;-46
2024/01/24 01:37:27;;;;;;;9.63;3.03;;;;;;;17.44;100.00;100916.50;5018882;28;20041;-46
2024/01/24 01:39:53;;;;;;;8.25;3.13;;;;;;;17.46;100.00;100921.69;5017723;28;20049;-46
2024/01/24 01:42:20;;;;;;;9.10;3.15;;;;;;;17.46;100.00;100918.88;5005974;28;20054;-42
2024/01/24 01:44:47;;;;;;;8.52;3.20;;;;;;;17.47;100.00;100917.63;5011398;28;20160;-46
2024/01/24 01:47:15;;;;;;;7.65;2.70;;;;;;;17.45;100.00;100906.06;5010280;28;20073;-44
2024/01/24 01:49:45;;;;;;;9.00;3.20;;;;;;;17.45;100.00;100923.69;5015718;28;20518;-45
2024/01/24 01:52:13;;;;;;;9.82;2.78;;;;;;;17.43;100.00;100904.47;5012262;28;20115;-47
2024/01/24 01:54:41;;;;;;;8.80;3.00;;;;;;;17.42;100.00;100914.16;5017469;28;20132;-45
2024/01/24 01:57:11;;;;;;;8.98;2.75;;;;;;;17.44;100.00;100905.28;5010335;28;20061;-44
2024/01/24 01:59:41;;;;;;;10.93;2.70;;;;;;;17.41;100.00;100917.44;5018646;28;20061;-48
2024/01/24 02:02:10;;;;;;;7.82;2.95;;;;;;;17.41;100.00;100897.00;5013408;28;20156;-46
2024/01/24 02:04:37;;;;;;;6.45;2.65;;;;;;;17.43;100.00;100915.72;5020048;28;20512;-44
2024/01/24 02:07:03;;;;;;;7.82;2.80;;;;;;;17.50;100.00;100930.75;5023534;28;20128;-47
2024/01/24 02:09:30;;;;;;;9.10;2.78;;;;;;;17.41;100.00;100931.47;5003647;28;21751;-45
2024/01/24 02:11:57;;;;;;;10.02;2.83;;;;;;;17.35;100.00;100914.44;5018659;28;20049;-44
2024/01/24 02:14:23;;;;;;;7.88;2.88;;;;;;;17.36;100.00;100909.59;5002831;28;20101;-47
2024/01/24 02:16:50;;;;;;;9.48;3.03;;;;;;;17.38;100.00;100911.97;5021384;28;20629;-45
2024/01/24 02:19:16;;;;;;;9.23;2.70;;;;;;;17.38;100.00;100909.16;5006958;28;20123;-45
2024/01/24 02:21:43;;;;;;;9.27;3.30;;;;;;;17.39;100.00;100908.69;5015379;28;20049;-45
2024/01/24 02:24:12;;;;;;;6.63;2.70;;;;;;;17.39;100.00;100903.06;5014683;28;20045;-46
2024/01/24 02:26:39;;;;;;;6.88;2.30;;;;;;;17.39;100.00;100901.03;5019945;28;20504;-44
2024/01/24 02:29:06;;;;;;;8.07;2.70;;;;;;;17.42;100.00;100890.13;5010153;28;20070;-47
2024/01/24 02:31:33;;;;;;;7.38;2.67;;;;;;;17.39;100.00;100884.16;5002797;28;20052;-47
2024/01/24 02:33:59;;;;;;;8.27;3.03;;;;;;;17.37;100.00;100885.88;5022323;28;20065;-46
2024/01/24 02:36:26;;;;;;;5.28;1.90;;;;;;;17.39;100.00;100880.59;5008108;28;20049;-46
2024/01/24 02:38:52;;;;;;;8.52;2.65;;;;;;;17.39;100.00;100884.16;5006040;28;20049;-46
2024/01/24 02:41:23;;;;;;;7.88;2.65;;;;;;;17.39;100.00;100855.31;5015913;28;20136;-49
2024/01/24 02:43:49;;;;;;;7.88;2.58;;;;;;;17.41;100.00;100860.47;5021221;28;20064;-48
2024/01/24 02:46:16;;;;;;;8.05;2.50;;;;;;;17.39;100.00;100875.72;5014069;28;20053;-46
2024/01/24 02:48:43;;;;;;;8.15;2.63;;;;;;;17.39;100.00;100872.94;5003503;28;20077;-46
2024/01/24 02:51:09;;;;;;;8.10;2.72;;;;;;;17.41;100.00;100857.66;5019720;28;20061;-45
2024/01/24 02:53:36;;;;;;;5.70;2.40;;;;;;;17.41;100.00;100855.59;5017288;28;20762;-47
2024/01/24 02:56:03;;;;;;;7.68;2.67;;;;;;;17.39;100.00;100841.25;5016860;28;20489;-45
2024/01/24 02:58:29;;;;;;;6.90;2.40;;;;;;;17.36;100.00;100834.50;5017492;28;20055;-46
2024/01/24 03:00:56;;;;;;;4.07;2.15;;;;;;;17.41;100.00;100849.22;5016016;28;21270;-45
2024/01/24 03:03:23;;;;;;;6.22;2.05;;;;;;;17.39;100.00;100852.50;5011240;28;20479;-46
2024/01/24 03:05:49;;;;;;;6.35;2.58;;;;;;;17.38;100.00;100850.13;5011459;28;20049;-47
2024/01/24 03:08:16;;;;;;;8.82;2.42;;;;;;;17.36;100.00;100847.78;5016453;28;20046;-44
2024/01/24 03:10:42;;;;;;;8.77;2.83;;;;;;;17.40;100.00;100851.22;5019364;28;20084;-46
2024/01/24 03:13:09;;;;;;;8.02;2.35;;;;;;;17.41;100.00;100841.56;5015551;28;20119;-45
2024/01/24 03:15:35;;;;;;;8.18;2.35;;;;;;;17.41;100.00;100823.94;5013270;28;20124;-43
2024/01/24 03:18:02;;;;;;;6.63;2.58;;;;;;;17.41;100.00;100826.75;5016263;28;20045;-45
2024/01/24 03:20:29;;;;;;;5.72;2.00;;;;;;;17.41;100.00;100844.38;5019140;28;20053;-43
2024/01/24 03:22:56;;;;;;;6.47;2.25;;;;;;;17.39;100.00;100822.34;5016187;28;20104;-44
2024/01/24 03:25:22;;;;;;;7.22;2.50;;;;;;;17.39;100.00;100802.66;5014291;28;20045;-43
2024/01/24 03:27:49;;;;;;;6.80;2.40;;;;;;;17.38;100.00;100811.56;5016207;28;20467;-46
2024/01/24 03:30:15;;;;;;;7.60;2.35;;;;;;;17.36;100.00;100797.97;5014974;28;20151;-45
2024/01/24 03:32:42;;;;;;;6.00;2.30;;;;;;;17.38;100.00;100789.06;5019969;28;20050;-44
2024/01/24 03:35:10;;;;;;;7.22;2.67;;;;;;;17.38;100.00;100805.94;5014240;28;20086;-45
2024/01/24 03:37:36;;;;;;;9.18;2.75;;;;;;;17.36;100.00;100865.41;5012660;28;20053;-45
2024/01/24 03:40:04;;;;;;;8.20;2.60;;;;;;;17.36;100.00;100837.31;5016731;28;20046;-48
2024/01/24 03:42:31;;;;;;;7.50;2.50;;;;;;;17.36;100.00;100831.69;5015838;28;21871;-45
2024/01/24 03:44:57;;;;;;;7.10;2.40;;;;;;;17.35;100.00;100844.19;5018514;28;20049;-45
2024/01/24 03:47:24;;;;;;;9.63;2.40;;;;;;;17.35;100.00;100875.09;5014119;28;20060;-45
2024/01/24 03:49:50;;;;;;;6.93;2.40;;;;;;;17.35;100.00;100874.31;5015105;28;20503;-44
2024/01/24 03:52:17;;;;;;;5.72;2.30;;;;;;;17.33;100.00;100854.31;5019468;28;20135;-46
2024/01/24 03:54:43;;;;;;;5.53;2.33;;;;;;;17.33;100.00;100874.78;5020972;28;20472;-43
2024/01/24 03:57:10;;;;;;;6.95;2.55;;;;;;;17.34;100.00;100884.78;5022795;28;20068;-46
2024/01/24 03:59:37;;;;;;;7.28;2.30;;;;;;;17.31;100.00;100857.59;5019334;28;20428;-43
2024/01/24 04:02:04;;;;;;;5.93;1.90;;;;;;;17.32;100.00;100884.44;5019399;28;20106;-44
2024/01/24 04:04:30;;;;;;;3.65;1.70;;;;;;;17.32;100.00;100886.47;5011716;28;20133;-43
2024/01/24 04:06:57;;;;;;;6.25;2.20;;;;;;;17.30;100.00;100894.59;5022355;28;20060;-45
2024/01/24 04:09:24;;;;;;;8.23;2.30;;;;;;;17.31;100.00;100890.53;5011097;28;20049;-47
2024/01/24 04:11:51;;;;;;;4.13;2.17;;;;;;;17.29;100.00;100909.88;5016894;28;20128;-44
2024/01/24 04:14:17;;;;;;;5.15;2.30;;;;;;;17.30;100.00;100901.00;5021397;28;20128;-44
2024/01/24 04:16:44;;;;;;;11.35;2.70;;;;;;;17.29;100.00;100913.47;5012856;28;20045;-47
2024/01/24 04:19:10;;;;;;;6.10;2.38;;;;;;;17.29;100.00;100856.50;5016497;28;20050;-44
2024/01/24 04:21:42;;;;;;;8.45;2.85;;;;;;;17.29;100.00;100893.03;5013423;28;20049;-43
2024/01/24 04:24:09;;;;;;;5.65;1.88;;;;;;;17.29;100.00;100910.66;5022029;28;20061;-46
2024/01/24 04:26:36;;;;;;;8.05;2.03;;;;;;;17.28;100.00;100913.91;5016498;28;20136;-44
2024/01/24 04:29:02;;;;;;;7.30;2.25;;;;;;;17.27;100.00;100890.66;5018448;28;20048;-46
2024/01/24 04:31:29;;;;;;;5.88;2.05;;;;;;;17.26;100.00;100903.13;5007064;28;20610;-44
2024/01/24 04:33:55;;;;;;;6.05;2.17;;;;;;;17.28;100.00;100903.47;5022122;28;20202;-44
2024/01/24 04:36:22;;;;;;;4.85;1.90;;;;;;;17.26;100.00;100883.47;5019643;28;20060;-47
2024/01/24 04:38:49;;;;;;;4.43;1.77;;;;;;;17.26;100.00;100899.56;5019869;28;20053;-46
2024/01/24 04:41:15;;;;;;;4.28;1.50;;;;;;;17.26;100.00;100917.19;5016862;28;20046;-45
2024/01/24 04:43:42;;;;;;;5.68;1.92;;;;;;;17.26;100.00;100936.84;5011574;28;20042;-45
2024/01/24 04:46:13;;;;;;;6.65;1.73;;;;;;;17.26;100.00;100927.66;5016823;28;20107;-48
2024/01/24 04:48:44;;;;;;;4.85;1.85;;;;;;;17.25;100.00;100951.38;5018758;28;20050;-43
2024/01/24 04:51:11;;;;;;;5.43;1.92;;;;;;;17.23;100.00;100948.22;5018421;28;20049;-47
2024/01/24 04:53:39;;;;;;;5.28;2.05;;;;;;;17.23;100.00;100934.19;5021441;28;20050;-46
2024/01/24 04:56:06;;;;;;;7.00;1.80;;;;;;;17.22;100.00;100936.19;5017059;28;20132;-44
2024/01/24 04:58:32;;;;;;;4.68;1.73;;;;;;;17.20;100.00;100924.66;5013210;28;20061;-45
2024/01/24 05:01:00;;;;;;;3.78;1.63;;;;;;;17.22;100.00;100913.72;5025093;28;20510;-47
2024/01/24 05:03:27;;;;;;;5.50;1.83;;;;;;;17.22;100.00;100929.81;5021946;28;20522;-48
2024/01/24 05:05:53;;;;;;;4.05;1.67;;;;;;;17.22;100.00;100969.16;5013921;28;20048;-43
2024/01/24 05:08:32;;;;;;;5.53;2.10;;;;;;;17.22;100.00;100971.97;5016262;28;20122;-47
2024/01/24 05:10:59;;;;;;;7.45;2.50;;;;;;;17.21;100.00;100964.75;5005032;28;20049;-45
2024/01/24 05:13:26;;;;;;;2.90;1.63;;;;;;;17.22;100.00;100966.34;5021044;28;20056;-47
2024/01/24 05:15:52;;;;;;;4.57;1.92;;;;;;;17.22;100.00;100949.47;5025291;28;20041;-44
2024/01/24 05:18:19;;;;;;;4.75;1.80;;;;;;;17.21;100.00;100943.06;5022633;28;20077;-47
2024/01/24 05:20:46;;;;;;;6.97;2.25;;;;;;;17.20;100.00;100919.03;5013047;28;20060;-45
2024/01/24 05:23:13;;;;;;;5.43;1.77;;;;;;;17.20;100.00;100930.28;5018297;28;20049;-46
2024/01/24 05:25:42;;;;;;;5.43;1.60;;;;;;;17.20;100.00;100946.34;5018819;28;20050;-44
2024/01/24 05:28:10;;;;;;;7.43;1.90;;;;;;;17.19;100.00;100939.91;5021428;28;20359;-47
2024/01/24 05:30:37;;;;;;;7.30;1.80;;;;;;;17.19;100.00;100962.41;5015252;28;21985;-45
2024/01/24 05:33:05;;;;;;;4.28;1.55;;;;;;;17.20;100.00;100977.25;5025334;28;20090;-44
2024/01/24 05:35:32;;;;;;;5.63;1.83;;;;;;;17.18;100.00;100985.31;5021015;28;20045;-44
2024/01/24 05:37:59;;;;;;;4.80;2.13;;;;;;;17.18;100.00;100982.53;5016216;28;20045;-46
2024/01/24 05:40:26;;;;;;;5.63;1.73;;;;;;;17.18;100.00;100990.94;5012788;28;20222;-48
2024/01/24 05:42:53;;;;;;;4.70;1.90;;;;;;;17.18;100.00;101005.00;5020895;28;20042;-44
2024/01/24 05:45:20;;;;;;;5.00;1.70;;;;;;;17.15;100.00;101015.13;5022839;28;20050;-46
2024/01/24 05:47:46;;;;;;;5.47;1.90;;;;;;;17.18;100.00;101019.03;5020478;28;20062;-47
2024/01/24 05:50:14;;;;;;;6.90;1.50;;;;;;;17.17;100.00;101037.94;5023932;28;20160;-47
2024/01/24 05:52:42;;;;;;;5.30;1.50;;;;;;;17.17;100.00;101031.53;5020620;28;20050;-44
2024/01/24 05:55:11;;;;;;;4.20;1.63;;;;;;;17.17;100.00;101020.28;5012637;28;20061;-44
2024/01/24 05:57:39;;;;;;;4.10;1.70;;;;;;;17.16;100.00;101044.81;5014634;28;20050;-48
2024/01/24 06:00:09;;;;;;;3.83;1.50;;;;;;;17.16;100.00;101027.97;5024190;28;20045;-48
2024/01/24 06:02:36;;;;;;;5.15;2.28;;;;;;;17.16;100.00;101027.97;5018968;28;20523;-48
2024/01/24 06:05:03;;;;;;;3.00;1.50;;;;;;;17.16;100.00;101030.75;5021017;28;20053;-45
2024/01/24 06:07:31;;;;;;;4.88;1.73;;;;;;;17.13;100.00;101051.34;5019834;28;20072;-47
2024/01/24 06:09:57;;;;;;;4.22;1.80;;;;;;;17.14;100.00;101054.91;5013935;28;20049;-45
2024/01/24 06:12:24;;;;;;;4.93;1.60;;;;;;;17.13;100.00;101065.38;5018037;28;20045;-48
2024/01/24 06:14:54;;;;;;;3.38;1.55;;;;;;;17.13;100.00;101065.38;5023421;28;20099;-47
2024/01/24 06:17:22;;;;;;;5.45;1.67;;;;;;;17.14;100.00;101068.97;5022353;28;20408;-46
2024/01/24 06:19:52;;;;;;;4.68;2.05;;;;;;;17.16;100.00;101083.34;5014686;28;20050;-46
2024/01/24 06:22:18;;;;;;;3.78;1.70;;;;;;;17.15;100.00;101062.13;5010087;28;20049;-49
2024/01/24 06:24:45;;;;;;;6.22;1.83;;;;;;;17.15;100.00;101082.56;5016537;28;20696;-46
2024/01/24 06:27:12;;;;;;;3.35;1.40;;;;;;;17.16;100.00;101094.59;5015683;28;20479;-47
2024/01/24 06:29:39;;;;;;;4.22;1.50;;;;;;;17.15;100.00;101105.03;5008625;28;21838;-46
2024/01/24 06:32:26;;;;;;;6.30;2.10;;;;;;;17.13;100.00;101118.75;5021688;28;20055;-43
2024/01/24 06:34:52;;;;;;;4.07;1.67;;;;;;;17.16;100.00;101136.72;5022552;28;20045;-46
2024/01/24 06:37:19;;;;;;;4.85;1.77;;;;;;;17.14;100.00;101122.34;5013333;28;20677;-47
2024/01/24 06:39:45;;;;;;;3.88;1.60;;;;;;;17.14;100.00;101130.75;5021810;28;20115;-43
2024/01/24 06:42:12;;;;;;;6.10;2.00;;;;;;;17.14;100.00;101125.16;5020004;28;20049;-47
2024/01/24 06:44:39;;;;;;;5.15;1.80;;;;;;;17.13;100.00;101099.09;5020884;28;20049;-47
2024/01/24 06:47:05;;;;;;;3.33;1.60;;;;;;;17.15;100.00;101126.75;5018993;28;20500;-45
2024/01/24 06:49:32;;;;;;;4.15;1.40;;;;;;;17.12;100.00;101108.75;5019239;28;20061;-45
2024/01/24 06:51:59;;;;;;;5.35;1.60;;;;;;;17.13;100.00;101132.81;5017004;28;20523;-48
2024/01/24 06:54:25;;;;;;;5.18;1.80;;;;;;;17.13;100.00;101112.34;5018970;28;20393;-46
2024/01/24 06:56:52;;;;;;;3.17;1.45;;;;;;;17.12;100.00;101114.38;5022356;28;20057;-47
2024/01/24 06:59:18;;;;;;;5.68;1.77;;;;;;;17.12;100.00;101116.41;5019243;28;20049;-44
2024/01/24 07:01:45;;;;;;;3.20;1.35;;;;;;;17.12;100.00;101136.06;5020395;28;20116;-45
2024/01/24 07:04:12;;;;;;;3.63;1.63;;;;;;;17.11;100.00;101132.47;5023938;28;20049;-43
2024/01/24 07:06:39;;;;;;;5.00;1.95;;;;;;;17.11;100.00;101148.53;5012498;28;20048;-46
2024/01/24 07:09:06;;;;;;;5.30;1.65;;;;;;;17.12;100.00;101155.72;5014300;28;20041;-44
2024/01/24 07:11:32;;;;;;;5.15;1.50;;;;;;;17.11;100.00;101154.94;5009560;28;20516;-43
2024/01/24 07:13:59;;;;;;;4.00;1.35;;;;;;;17.12;100.00;101152.94;5021383;28;20136;-46
2024/01/24 07:16:25;;;;;;;6.07;2.03;;;;;;;17.11;100.00;101149.31;5011614;28;20096;-44
2024/01/24 07:18:52;;;;;;;3.63;1.70;;;;;;;17.11;100.00;101190.66;5016000;28;20115;-44
2024/01/24 07:21:18;;;;;;;5.65;1.80;;;;;;;17.11;100.00;101193.47;5015504;28;20045;-46
2024/01/24 07:23:45;;;;;;;3.28;1.40;;;;;;;17.10;100.00;101195.47;5020920;28;20065;-53
2024/01/24 07:26:12;;;;;;;2.67;1.25;;;;;;;17.11;100.00;101204.72;5019207;28;20148;-45
2024/01/24 07:28:38;;;;;;;3.90;1.60;;;;;;;17.10;100.00;101208.72;5019236;28;20077;-43
2024/01/24 07:31:06;;;;;;;7.32;1.98;;;;;;;17.10;100.00;101217.97;5022255;28;20483;-44
2024/01/24 07:33:33;;;;;;;3.85;1.80;;;;;;;17.11;100.00;101204.72;5017154;28;20159;-44
2024/01/24 07:35:59;;;;;;;4.57;1.70;;;;;;;17.16;100.00;101216.19;5013492;28;20046;-49
2024/01/24 07:38:26;;;;;;;5.70;1.70;;;;;;;17.14;100.00;101213.03;4997226;28;20484;-48
2024/01/24 07:40:53;;;;;;;5.53;1.60;;;;;;;17.13;100.00;101228.31;5017334;28;20049;-43
2024/01/24 07:43:21;;;;;;;2.38;1.30;;;;;;;17.15;100.00;101242.69;5012774;28;20073;-50
2024/01/24 07:45:48;;;;;;;5.38;1.33;;;;;;;17.13;100.00;101267.66;5016303;28;20093;-45
2024/01/24 07:48:15;;;;;;;3.70;1.55;;;;;;;17.12;100.00;101266.06;5021882;28;20049;-48
2024/01/24 07:50:42;;;;;;;4.07;1.65;;;;;;;17.12;100.00;101257.63;5014627;28;20129;-45
2024/01/24 07:53:09;;;;;;;2.10;1.27;;;;;;;17.11;100.00;101246.84;5018305;28;20065;-48
2024/01/24 07:55:36;;;;;;;2.83;1.25;;;;;;;17.11;100.00;101258.09;5019650;28;20046;-46
2024/01/24 07:58:21;;;;;;;5.93;1.53;;;;;;;17.11;100.00;101275.75;5013697;28;20053;-45
2024/01/24 08:00:48;;;;;;;5.95;1.80;;;;;;;17.12;100.00;101296.19;5021660;28;20054;-48
2024/01/24 08:03:16;;;;;;;5.85;1.75;;;;;;;17.12;100.00;101296.97;5019503;28;20073;-45
2024/01/24 08:05:43;;;;;;;5.28;1.55;;;;;;;17.12;100.00;101293.41;5020717;28;20415;-46
2024/01/24 08:08:10;;;;;;;4.55;1.40;;;;;;;17.11;100.00;101289.78;5017451;28;20049;-47
2024/01/24 08:10:37;;;;;;;5.07;1.50;;;;;;;17.12;100.00;101313.81;5016315;28;20180;-46
2024/01/24 08:13:04;;;;;;;4.88;1.65;;;;;;;17.12;100.00;101322.25;5014825;28;20049;-46
2024/01/24 08:15:31;;;;;;;6.30;1.98;;;;;;;17.11;100.00;101329.13;5019114;28;20443;-47
2024/01/24 08:17:58;;;;;;;4.55;1.42;;;;;;;17.12;100.00;101327.88;5014480;28;20046;-46
2024/01/24 08:20:25;;;;;;;3.60;1.40;;;;;;;17.12;100.00;101324.28;5016119;28;20056;-46
2024/01/24 08:22:52;;;;;;;5.95;1.98;;;;;;;17.12;100.00;101327.09;5018070;28;20455;-44
2024/01/24 08:25:18;;;;;;;5.00;1.70;;;;;;;17.12;100.00;101332.72;5012975;28;20107;-48
2024/01/24 08:27:45;;;;;;;3.78;1.63;;;;;;;17.11;100.00;101320.69;5017237;28;20463;-45
2024/01/24 08:30:12;;;;;;;5.72;1.80;;;;;;;17.11;100.00;101337.53;5011881;28;20492;-48
2024/01/24 08:32:40;;;;;;;3.47;1.40;;;;;;;17.12;100.00;101338.34;5021651;28;20057;-46
2024/01/24 08:35:08;;;;;;;5.03;1.30;;;;;;;17.13;100.00;101346.31;5019168;28;20583;-47
2024/01/24 08:37:34;;;;;;;3.03;1.50;;;;;;;17.14;100.00;101335.84;5006833;28;20058;-47
2024/01/24 08:40:02;;;;;;;4.18;1.67;;;;;;;17.13;100.00;101362.38;5014041;28;20077;-46
2024/01/24 08:42:29;;;;;;;8.68;2.40;;;;;;;17.15;100.00;101360.69;5005929;28;20054;-48
2024/01/24 08:44:56;;;;;;;5.80;1.90;;;;;;;17.17;100.00;101354.63;5024415;28;20052;-44
2024/01/24 08:47:22;;;;;;;5.90;1.60;;;;;;;17.14;100.00;101375.19;5011674;28;20138;-46
2024/01/24 08:49:50;;;;;;;4.63;1.33;;;;;;;17.14;100.00;101370.38;5013749;28;20053;-49
2024/01/24 08:52:17;;;;;;;6.03;1.80;;;;;;;17.12;100.00;101370.03;5018746;28;20492;-50
2024/01/24 08:54:44;;;;;;;13.55;2.50;;;;;;;17.03;100.00;101389.53;5000327;28;20447;-43
2024/01/24 08:57:11;;;;;;;18.63;3.22;;;;;;;16.89;100.00;101373.09;5010657;28;20045;-42
2024/01/24 08:59:38;;;;;;;19.83;4.40;;;;;;;16.73;100.00;101384.38;5021233;28;20057;-45
2024/01/24 09:02:07;;;;;;;24.58;4.72;;;;;;;16.75;100.00;101376.28;5020504;28;20444;-44
2024/01/24 09:04:36;;;;;;;25.23;4.90;;;;;;;16.58;100.00;101400.03;5018194;28;20078;-42
2024/01/24 09:07:03;;;;;;;33.95;6.10;;;;;;;16.63;100.00;101416.34;5018484;28;20038;-46
2024/01/24 09:09:33;;;;;;;26.45;4.88;;;;;;;16.54;100.00;101421.81;5015812;28;20509;-44
2024/01/24 09:12:00;;;;;;;29.42;5.10;;;;;;;16.60;100.00;101424.84;5017859;28;20044;-47
2024/01/24 09:14:26;;;;;;;26.45;5.15;;;;;;;16.70;100.00;101420.97;5016907;28;20061;-46
2024/01/24 09:16:53;;;;;;;27.17;5.22;;;;;;;16.78;100.00;101403.50;5015597;28;21099;-49
2024/01/24 09:19:20;;;;;;;23.35;4.43;;;;;;;16.84;100.00;101406.53;5003937;28;20078;-47
2024/01/24 09:21:47;;;;;;;29.98;5.00;;;;;;;16.87;100.00;101416.88;5009405;28;20054;-46
2024/01/24 09:24:15;;;;;;;25.83;4.47;;;;;;;16.91;100.00;101423.22;5023689;28;20466;-46
2024/01/24 09:26:42;;;;;;;27.67;4.82;;;;;;;16.94;100.00;101422.31;5015370;28;20463;-45
2024/01/24 09:29:12;;;;;;;25.20;5.07;;;;;;;16.93;100.00;101446.00;5007224;28;20049;-50
2024/01/24 09:31:43;;;;;;;26.17;4.88;;;;;;;16.96;100.00;101448.72;5004236;28;20064;-46
2024/01/24 09:34:13;;;;;;;21.05;4.30;;;;;;;16.95;100.00;101471.66;5020146;28;20085;-48
2024/01/24 09:36:41;;;;;;;24.95;5.05;;;;;;;16.95;100.00;101449.94;5019522;28;20045;-50
2024/01/24 09:39:09;;;;;;;23.85;4.18;;;;;;;16.95;100.00;101458.38;5023905;28;20132;-46
2024/01/24 09:41:42;;;;;;;21.17;3.97;;;;;;;16.95;100.00;101452.75;5009494;28;20619;-47
2024/01/24 09:44:11;;;;;;;20.58;4.53;;;;;;;16.97;100.00;101452.31;5024885;28;20057;-48
2024/01/24 09:46:40;;;;;;;21.38;3.85;;;;;;;16.98;100.00;101456.72;5015311;28;20081;-47
2024/01/24 09:49:07;;;;;;;17.75;3.90;;;;;;;16.98;100.00;101462.34;5019223;28;20052;-48
2024/01/24 09:51:34;;;;;;;20.23;4.15;;;;;;;16.98;100.00;101479.19;5012149;28;20057;-47
2024/01/24 09:54:06;;;;;;;24.42;4.53;;;;;;;16.97;100.00;101478.41;5019693;28;20061;-48
2024/01/24 09:56:35;;;;;;;19.10;3.72;;;;;;;16.97;100.00;101500.88;5011713;28;20046;-50
2024/01/24 09:59:06;;;;;;;16.15;3.85;;;;;;;16.98;100.00;101530.53;5023853;28;20050;-47
2024/01/24 10:01:38;;;;;;;20.38;4.25;;;;;;;16.97;100.00;101517.72;5012789;28;20064;-48
2024/01/24 10:04:06;;;;;;;22.58;4.30;;;;;;;16.97;100.00;101528.97;5021913;28;20042;-46
2024/01/24 10:06:39;;;;;;;18.60;4.05;;;;;;;16.94;100.00;101527.03;5009239;28;20104;-45
2024/01/24 10:09:06;;;;;;;17.30;3.85;;;;;;;16.98;100.00;101530.53;5019374;28;20041;-46
2024/01/24 10:11:34;;;;;;;15.80;3.30;;;;;;;16.95;100.00;101522.97;5009548;28;20531;-47
2024/01/24 10:14:01;;;;;;;19.13;3.75;;;;;;;16.92;100.00;101503.44;5008917;28;20419;-46
2024/01/24 10:16:27;;;;;;;19.65;4.20;;;;;;;16.93;100.00;101502.19;5012722;28;22131;-46
2024/01/24 10:18:55;;;;;;;20.88;3.63;;;;;;;16.93;100.00;101505.78;4999240;28;20056;-45
2024/01/24 10:21:22;;;;;;;16.45;3.85;;;;;;;16.96;100.00;101512.53;5002385;28;20042;-47
2024/01/24 10:23:49;;;;;;;16.73;3.80;;;;;;;16.97;100.00;101498.06;5018491;28;20070;-47
2024/01/24 10:26:17;;;;;;;16.25;3.55;;;;;;;16.98;100.00;101508.06;5019366;28;20045;-48
2024/01/24 10:28:44;;;;;;;15.43;3.67;;;;;;;16.99;100.00;101515.28;5003632;28;20057;-48
2024/01/24 10:31:11;;;;;;;18.48;4.15;;;;;;;17.02;100.00;101519.22;5013175;28;20052;-47
2024/01/24 10:33:39;;;;;;;17.25;3.58;;;;;;;17.02;100.00;101519.97;5002362;28;20428;-44
2024/01/24 10:36:09;;;;;;;15.30;4.05;;;;;;;17.06;100.00;101517.88;5016810;28;20128;-46
2024/01/24 10:38:57;;;;;;;16.67;3.87;;;;;;;17.09;100.00;101522.59;5014087;28;20080;-47
2024/01/24 10:41:29;;;;;;;19.27;3.80;;;;;;;17.09;100.00;101524.63;5014587;28;20101;-46
2024/01/24 10:43:57;;;;;;;16.05;3.83;;;;;;;17.09;100.00;101511.34;5016671;28;20057;-46
2024/01/24 10:46:25;;;;;;;17.13;3.30;;;;;;;17.10;100.00;101518.56;5017822;28;20054;-47
2024/01/24 10:48:53;;;;;;;13.90;3.75;;;;;;;17.09;100.00;101550.69;5011595;28;20050;-46
2024/01/24 10:51:20;;;;;;;12.60;3.08;;;;;;;17.08;100.00;101534.28;5020155;28;20061;-46
2024/01/24 10:53:49;;;;;;;12.38;2.85;;;;;;;17.10;100.00;101534.63;5003436;28;20069;-44
2024/01/24 10:56:16;;;;;;;16.05;3.33;;;;;;;17.03;100.00;101515.94;5006937;28;20056;-49
2024/01/24 10:58:45;;;;;;;14.85;3.45;;;;;;;17.07;100.00;101532.69;5006566;28;20053;-45
2024/01/24 11:01:11;;;;;;;18.25;4.25;;;;;;;17.09;100.00;101547.88;5005632;28;20054;-46
2024/01/24 11:03:39;;;;;;;21.35;2.90;;;;;;;17.10;100.00;101538.22;5011304;28;20046;-45
2024/01/24 11:06:12;;;;;;;12.98;2.90;;;;;;;17.10;100.00;101563.53;5021034;28;20049;-48
2024/01/24 11:08:51;;;;;;;13.93;2.75;;;;;;;17.11;100.00;101553.09;5007442;28;20144;-44
2024/01/24 11:11:21;;;;;;;12.05;2.53;;;;;;;17.11;100.00;101551.06;5016874;28;20072;-45
2024/01/24 11:13:47;;;;;;;13.55;3.33;;;;;;;17.11;100.00;101553.88;5017235;28;20049;-45
2024/01/24 11:16:38;;;;;;;15.13;3.42;;;;;;;17.11;100.00;101567.94;5022751;28;20472;-47